Skip Navigation LinksHome page > Weather > Current weather Skip Navigation Links

Current Weather

Heathrow, London

For information only: do not use for flight planning or navigation.
Latest weather
Observation time Thursday, March 26, 2015 9:50 PM GMT
Local time Thursday, March 26, 2015 10:26 PM GMT
Flight conditions Visual Meteorological Conditions
Winds
Wind direction West (280°)
Wind speed 13 mph
Visibility 6.2 mi.
Sky condition
Ceiling unlimited
Sky clear
Temperature 45°F
Dewpoint 34°F
Altimeter 29.91 in.Hg
Derived measurements
Relative humidity 66%
Wind chill 38°F
Density altitude -855 ft.
Remarks
Corrected report.
Ceiling and visibility OK.
No significant changes expected in the next two hours.
METAR COR EGLL 262150Z 28011KT CAVOK 07/01 Q1013 NOSIG

Settings

Location code

InnerDrive.Weather 4.0.5505.0 Release CLR 4.0.30319.34014
Copyright ©2015 Inner Drive Technology. All rights reserved. Portions Copyright ©1986-2015 David Braverman.

Find weather

Site navigation


Skip Navigation Links

Place info

Page info

PayPal - The safer, easier way to pay online!

Return home.

Copyright ©2015 Inner Drive Technology. Purveyors of fine, hand-crafted computer software. Page printed 2015-03-26T22:26:30 UTC.